createdAt,value
2022-11-14T00:08:32.385Z,97640.41
2022-11-14T00:18:52.778Z,97649.03
2022-11-14T00:29:14.680Z,97643.31
2022-11-14T00:39:34.632Z,97649.06
2022-11-14T00:49:54.743Z,97663.94
2022-11-14T01:00:14.934Z,97642.41
2022-11-14T01:10:38.236Z,97626.56
2022-11-14T01:20:58.434Z,97621.88
2022-11-14T01:31:24.537Z,97636.28
2022-11-14T01:41:44.482Z,97614.66
2022-11-14T01:52:14.134Z,97620.31
2022-11-14T02:02:34.734Z,97628.66
2022-11-14T02:12:55.101Z,97611.03
2022-11-14T02:23:17.738Z,97625.38
2022-11-14T02:33:37.680Z,97614.78
2022-11-14T02:43:57.684Z,97624.72
2022-11-14T02:54:17.618Z,97612.16
2022-11-14T03:04:37.613Z,97587.97
2022-11-14T03:14:57.542Z,97588.09
2022-11-14T03:25:17.725Z,97599.16
2022-11-14T03:35:42.477Z,97594.44
2022-11-14T03:46:04.592Z,97582.88
2022-11-14T03:56:25.196Z,97588.13
2022-11-14T04:06:46.348Z,97560.72
2022-11-14T04:17:06.548Z,97571.72
2022-11-14T04:27:26.379Z,97590.50
2022-11-14T04:37:46.431Z,97578.53
2022-11-14T04:48:06.800Z,97583.69
2022-11-14T04:58:26.930Z,97603.41
2022-11-14T05:08:48.478Z,97584.97
2022-11-14T05:19:08.333Z,97565.97
2022-11-14T05:29:28.250Z,97571.38
2022-11-14T05:39:48.284Z,97553.53
2022-11-14T05:50:09.192Z,97524.91
2022-11-14T06:00:29.888Z,97539.03
2022-11-14T06:10:50.113Z,97600.94
2022-11-14T06:21:13.533Z,97607.66
2022-11-14T06:31:33.943Z,97636.66
2022-11-14T06:41:56.213Z,97647.00
2022-11-14T06:52:16.419Z,97664.56
2022-11-14T07:02:36.274Z,97670.66
2022-11-14T07:12:56.561Z,97666.78
2022-11-14T07:23:22.545Z,97668.41
2022-11-14T07:33:44.391Z,97666.09
2022-11-14T07:44:04.837Z,97642.25
2022-11-14T07:54:25.129Z,97631.75
2022-11-14T08:04:45.181Z,97615.63
2022-11-14T08:15:10.168Z,97614.19
2022-11-14T08:25:30.252Z,97623.63
2022-11-14T08:35:50.130Z,97610.28
2022-11-14T08:46:10.356Z,97604.13
2022-11-14T08:56:30.580Z,97607.56
2022-11-14T09:06:51.842Z,97591.81
2022-11-14T09:17:11.960Z,97635.19
2022-11-14T09:27:32.186Z,97654.00
2022-11-14T09:38:02.969Z,97627.50
2022-11-14T09:48:29.882Z,97649.91
2022-11-14T09:58:50.213Z,97667.53
2022-11-14T10:09:30.463Z,97668.84
2022-11-14T10:20:08.108Z,97650.75
2022-11-14T10:30:39.780Z,97656.31
2022-11-14T10:41:04.634Z,97646.72
2022-11-14T10:51:44.281Z,97629.66
2022-11-14T11:02:04.202Z,97644.81
2022-11-14T11:12:46.179Z,97656.84
2022-11-14T11:23:09.259Z,97692.03
2022-11-14T11:33:32.361Z,97684.97
2022-11-14T11:44:14.539Z,97679.66
2022-11-14T11:54:44.984Z,97680.66
2022-11-14T12:05:05.180Z,97665.16
2022-11-14T12:15:44.704Z,97663.81
2022-11-14T12:26:26.458Z,97657.88
2022-11-14T12:36:46.822Z,97659.25
2022-11-14T12:47:09.860Z,97660.84
2022-11-14T12:57:49.846Z,97647.84
2022-11-14T13:08:19.528Z,97648.31
2022-11-14T13:19:12.255Z,97639.22
2022-11-14T13:29:38.717Z,97643.00
2022-11-14T13:40:14.255Z,97625.63
2022-11-14T13:50:37.306Z,97604.09
2022-11-14T14:01:25.160Z,97599.84
2022-11-14T14:12:28.085Z,97603.47
2022-11-14T14:23:02.101Z,97587.09
2022-11-14T14:33:22.245Z,97585.78
2022-11-14T14:43:49.176Z,97577.00
2022-11-14T14:54:23.888Z,97584.31
2022-11-14T15:04:46.126Z,97581.84
2022-11-14T15:15:13.762Z,97568.81
2022-11-14T15:25:36.048Z,97569.69
2022-11-14T15:36:19.924Z,97565.56
2022-11-14T15:46:47.729Z,97565.47
2022-11-14T15:57:17.336Z,97570.34
2022-11-14T16:07:38.512Z,97575.84
2022-11-14T16:17:58.744Z,97575.31
2022-11-14T16:28:19.101Z,97570.31
2022-11-14T16:38:39.133Z,97557.94
2022-11-14T16:48:59.653Z,97559.75
2022-11-14T16:59:20.194Z,97566.72
2022-11-14T17:09:40.463Z,97565.06
2022-11-14T17:20:00.835Z,97571.41
2022-11-14T17:30:21.060Z,97607.44
2022-11-14T17:40:41.085Z,97598.56
2022-11-14T17:51:06.213Z,97609.41
2022-11-14T18:01:30.161Z,97607.88
2022-11-14T18:11:50.590Z,97604.69
2022-11-14T18:22:10.519Z,97600.16
2022-11-14T18:32:30.640Z,97595.91
2022-11-14T18:42:50.592Z,97596.97
2022-11-14T18:53:10.669Z,97596.09
2022-11-14T19:03:32.261Z,97585.28
2022-11-14T19:13:53.901Z,97576.66
2022-11-14T19:24:13.932Z,97581.66
2022-11-14T19:34:33.948Z,97575.75
2022-11-14T19:44:53.953Z,97579.41
2022-11-14T19:55:14.411Z,97578.28
2022-11-14T20:05:34.823Z,97568.13
2022-11-14T20:15:55.240Z,97581.94
2022-11-14T20:26:17.341Z,97583.97
2022-11-14T20:36:57.012Z,97570.53
2022-11-14T20:47:19.018Z,97570.31
2022-11-14T20:57:39.507Z,97571.34
2022-11-14T21:08:00.023Z,97576.38
2022-11-14T21:18:20.212Z,97572.72
2022-11-14T21:28:42.790Z,97550.94
2022-11-14T21:39:03.520Z,97541.47
2022-11-14T21:49:23.744Z,97552.28
2022-11-14T21:59:43.624Z,97547.88
2022-11-14T22:10:04.054Z,97545.34
2022-11-14T22:20:24.214Z,97530.97
2022-11-14T22:30:44.065Z,97546.38
2022-11-14T22:41:06.180Z,97548.53
2022-11-14T22:51:27.542Z,97546.84
2022-11-14T23:01:47.876Z,97548.34
2022-11-14T23:12:07.949Z,97540.56
2022-11-14T23:22:27.927Z,97538.75
2022-11-14T23:32:48.006Z,97538.75
2022-11-14T23:43:07.840Z,97539.66
2022-11-14T23:53:28.062Z,97532.69
